Архив погоды в Аяне

Метеограмма Аян
Воскресенье, 25 Июня
Время местн. Темп Ветер Видим Явления Облачность нижн/средн/верх Атм. давл. Влжн Точка росы ВНГО R Сост. почвы Tg s
Напр Скр Прв ур.ст ур.м изм
01:00 +6.5° Ю 4 - 20 км - облачно 759 760 -0.7 94% +5.6° 200 м - - - -
Суббота, 24 Июня
Время местн. Темп Ветер Видим Явления Облачность нижн/средн/верх Атм. давл. Влжн Точка росы ВНГО R Сост. почвы Tg s
Напр Скр Прв ур.ст ур.м изм
22:00 +6.8° Ю 4 - 20 км - облачно 760 760 -0.5 93% +5.7° 200 м - - - -
19:00 +8° Ю,Ю-З 4 - 50 км - переменная облачность 760 761 -0.5 88% +6.1° 1 км 0 - - -
16:00 +9.7° Ю,Ю-З 3 - 50 км - переменная облачность 761 761 -0.5 82% +6.8° - - - - -
13:00 +10.5° С 4 - 50 км - облачно с прояснениями 761 762 -0.2 73% +5.9° - - - - -
10:00 +8.5° С 4 - 20 км - облачно 762 762 +0.2 84% +6° 600 м - - - -
07:00 +7.9° С,С-В 3 - 20 км - облачно 761 762 +0.6 87% +5.8° 600 м 0 Влажная (без луж) +7° -
04:00 +7.8° С,С-В 3 - 20 км - облачно 761 761 -0.2 88% +6° 600 м - - - -
01:00 +7.9° С,С-В 4 - 20 км - облачно 761 761 +0.1 87% +5.8° 600 м - - - -
Пятница, 23 Июня
Время местн. Темп Ветер Видим Явления Облачность нижн/средн/верх Атм. давл. Влжн Точка росы ВНГО R Сост. почвы Tg s
Напр Скр Прв ур.ст ур.м изм
22:00 +8.1° С,С-В 3 - 20 км - облачно 761 762 +0.5 89% +6.4° 600 м - - - -
19:00 +8.8° С,С-В 5 - 50 км - облачно 760 761 +0.5 84% +6.2° 1 км 0 - - -
16:00 +9.7° С,С-В 6 10 50 км - облачно с прояснениями 760 761 +0.5 79% +6.2° 1 км - - - -
13:00 +11.4° С 4 - 50 км - облачно с прояснениями 760 760 +0.8 75% +7.1° 1 км - - - -
10:00 +9.8° С,С-В 5 - 50 км - облачно 759 759 +1.1 82% +6.8° 1 км - - - -
07:00 +9° С,С-В 4 - 50 км - облачно 758 758 +1.3 82% +6.1° - 0 - - -
04:00 +8.2° С,С-В 4 - 50 км - переменная облачность 756 757 +0.6 87% +6.1° - - - - -
01:00 +8.4° С,С-В 3 - более 50 км - переменная облачность 756 756 +0.8 88% +6.6° более 2.5 км - - - -
Четверг, 22 Июня
Время местн. Темп Ветер Видим Явления Облачность нижн/средн/верх Атм. давл. Влжн Точка росы ВНГО R Сост. почвы Tg s
Напр Скр Прв ур.ст ур.м изм
22:00 +10.7° С,С-В 5 - 50 км - облачно с прояснениями 755 756 +2.2 77% +6.9° - - - - -
19:00 +13.2° С,С-В 7 12 50 км - облачно 753 753 +2 70% +7.8° - 0 - - -
16:00 +22.1° Ю,Ю-З 3 - более 50 км - облачно 751 751 -0.3 35% +6.1° 1.5 км - - - -
13:00 +21.9° Ю,Ю-З 3 - 50 км - переменная облачность 751 752 -0.3 36% +6° 1.5 км - - - -
10:00 +24° С,С-В 3 - 50 км - ясно 752 753 -0.3 32% +6.2° 1.5 км - - - -
07:00 +15.7° Ю 1 - более 50 км - ясно 752 753 +0.1 67% +9.6° более 2.5 км 0 Влажная (без луж) +3° -
04:00 +5.3° Ю,Ю-З 1 - 50 км - ясно 753 753 +0.1 95% +4.6° более 2.5 км - - - -
01:00 +8.3° С 1 - 50 км - ясно 753 753 +2.9 89% +6.6° более 2.5 км - - - -
Среда, 21 Июня
Время местн. Темп Ветер Видим Явления Облачность нижн/средн/верх Атм. давл. Влжн Точка росы ВНГО R Сост. почвы Tg s
Напр Скр Прв ур.ст ур.м изм
22:00 +17.1° С-В 2 - более 50 км небо без изменений {ливневые осадки} облачно с прояснениями 750 750 +1.7 56% +8.3° 1.5 км - - - -